sensor_id;sensor_type;location;lat;lon;timestamp;P1;durP1;ratioP1;P2;durP2;ratioP2
10517;SDS011;5307;42.548;22.968;2023-05-07T00:00:28;20.55;;;10.25;;
10517;SDS011;5307;42.548;22.968;2023-05-07T00:03:27;17.45;;;8.32;;
10517;SDS011;5307;42.548;22.968;2023-05-07T00:05:54;10.63;;;7.07;;
10517;SDS011;5307;42.548;22.968;2023-05-07T00:21:33;9.88;;;5.68;;
10517;SDS011;5307;42.548;22.968;2023-05-07T00:24:01;11.52;;;6.32;;
10517;SDS011;5307;42.548;22.968;2023-05-07T00:29:52;7.65;;;5.90;;
10517;SDS011;5307;42.548;22.968;2023-05-07T00:32:22;10.70;;;6.38;;
10517;SDS011;5307;42.548;22.968;2023-05-07T00:48:40;12.80;;;6.00;;
10517;SDS011;5307;42.548;22.968;2023-05-07T00:51:07;9.60;;;6.35;;
10517;SDS011;5307;42.548;22.968;2023-05-07T00:53:43;12.55;;;5.75;;
10517;SDS011;5307;42.548;22.968;2023-05-07T00:56:10;11.27;;;6.00;;
10517;SDS011;5307;42.548;22.968;2023-05-07T00:58:39;8.30;;;6.15;;
10517;SDS011;5307;42.548;22.968;2023-05-07T01:01:13;17.65;;;5.85;;
10517;SDS011;5307;42.548;22.968;2023-05-07T01:03:42;9.82;;;6.28;;
10517;SDS011;5307;42.548;22.968;2023-05-07T01:23:42;9.45;;;6.00;;
10517;SDS011;5307;42.548;22.968;2023-05-07T01:26:13;9.65;;;6.25;;
10517;SDS011;5307;42.548;22.968;2023-05-07T01:28:41;8.63;;;6.30;;
10517;SDS011;5307;42.548;22.968;2023-05-07T01:31:09;11.85;;;6.85;;
10517;SDS011;5307;42.548;22.968;2023-05-07T01:46:35;14.15;;;6.45;;
10517;SDS011;5307;42.548;22.968;2023-05-07T01:55:40;9.77;;;6.90;;
10517;SDS011;5307;42.548;22.968;2023-05-07T01:58:08;10.68;;;6.82;;
10517;SDS011;5307;42.548;22.968;2023-05-07T02:00:40;13.80;;;7.07;;
10517;SDS011;5307;42.548;22.968;2023-05-07T02:03:09;8.85;;;6.47;;
10517;SDS011;5307;42.548;22.968;2023-05-07T02:05:53;14.52;;;6.95;;
10517;SDS011;5307;42.548;22.968;2023-05-07T02:16:15;9.45;;;6.28;;
10517;SDS011;5307;42.548;22.968;2023-05-07T02:24:03;7.65;;;5.93;;
10517;SDS011;5307;42.548;22.968;2023-05-07T02:26:31;7.70;;;6.25;;
10517;SDS011;5307;42.548;22.968;2023-05-07T02:28:59;9.93;;;5.75;;
10517;SDS011;5307;42.548;22.968;2023-05-07T02:31:26;11.30;;;6.00;;
10517;SDS011;5307;42.548;22.968;2023-05-07T02:57:11;7.50;;;5.88;;
10517;SDS011;5307;42.548;22.968;2023-05-07T02:59:40;10.15;;;5.88;;
10517;SDS011;5307;42.548;22.968;2023-05-07T03:02:08;8.60;;;6.05;;
10517;SDS011;5307;42.548;22.968;2023-05-07T03:17:09;12.15;;;5.72;;
10517;SDS011;5307;42.548;22.968;2023-05-07T03:19:57;15.38;;;6.70;;
10517;SDS011;5307;42.548;22.968;2023-05-07T03:23:00;11.20;;;5.93;;
10517;SDS011;5307;42.548;22.968;2023-05-07T03:25:34;9.10;;;5.88;;
10517;SDS011;5307;42.548;22.968;2023-05-07T03:28:01;11.10;;;7.13;;
10517;SDS011;5307;42.548;22.968;2023-05-07T03:30:43;15.15;;;7.07;;
10517;SDS011;5307;42.548;22.968;2023-05-07T03:33:13;10.38;;;6.65;;
10517;SDS011;5307;42.548;22.968;2023-05-07T03:59:53;14.05;;;6.28;;
10517;SDS011;5307;42.548;22.968;2023-05-07T04:02:20;10.80;;;6.72;;
10517;SDS011;5307;42.548;22.968;2023-05-07T04:07:34;9.65;;;6.97;;
10517;SDS011;5307;42.548;22.968;2023-05-07T04:10:22;10.75;;;6.65;;
10517;SDS011;5307;42.548;22.968;2023-05-07T04:19:44;11.32;;;8.00;;
10517;SDS011;5307;42.548;22.968;2023-05-07T04:22:12;12.80;;;8.75;;
10517;SDS011;5307;42.548;22.968;2023-05-07T04:24:39;15.73;;;8.70;;
10517;SDS011;5307;42.548;22.968;2023-05-07T04:27:06;18.00;;;10.70;;
10517;SDS011;5307;42.548;22.968;2023-05-07T04:29:33;17.50;;;9.88;;
10517;SDS011;5307;42.548;22.968;2023-05-07T04:32:03;17.60;;;9.73;;
10517;SDS011;5307;42.548;22.968;2023-05-07T04:34:31;14.77;;;10.25;;
10517;SDS011;5307;42.548;22.968;2023-05-07T04:47:26;21.55;;;11.38;;
10517;SDS011;5307;42.548;22.968;2023-05-07T04:50:07;19.42;;;11.48;;
10517;SDS011;5307;42.548;22.968;2023-05-07T04:52:36;18.95;;;11.30;;
10517;SDS011;5307;42.548;22.968;2023-05-07T04:58:21;22.77;;;10.25;;
10517;SDS011;5307;42.548;22.968;2023-05-07T05:00:48;22.48;;;12.13;;
10517;SDS011;5307;42.548;22.968;2023-05-07T05:12:48;18.48;;;11.52;;
10517;SDS011;5307;42.548;22.968;2023-05-07T05:32:03;15.35;;;9.95;;
10517;SDS011;5307;42.548;22.968;2023-05-07T05:35:10;16.42;;;8.98;;
10517;SDS011;5307;42.548;22.968;2023-05-07T05:43:52;14.02;;;8.55;;
10517;SDS011;5307;42.548;22.968;2023-05-07T05:46:20;12.68;;;7.95;;
10517;SDS011;5307;42.548;22.968;2023-05-07T05:59:34;12.93;;;8.43;;
10517;SDS011;5307;42.548;22.968;2023-05-07T06:02:01;13.82;;;8.43;;
10517;SDS011;5307;42.548;22.968;2023-05-07T06:04:29;12.77;;;8.73;;
10517;SDS011;5307;42.548;22.968;2023-05-07T06:06:56;13.88;;;8.63;;
10517;SDS011;5307;42.548;22.968;2023-05-07T06:09:25;15.90;;;9.40;;
10517;SDS011;5307;42.548;22.968;2023-05-07T06:11:52;16.80;;;9.38;;
10517;SDS011;5307;42.548;22.968;2023-05-07T06:14:20;14.13;;;9.77;;
10517;SDS011;5307;42.548;22.968;2023-05-07T06:16:48;18.90;;;10.45;;
10517;SDS011;5307;42.548;22.968;2023-05-07T06:19:15;16.50;;;9.75;;
10517;SDS011;5307;42.548;22.968;2023-05-07T06:21:48;15.75;;;9.23;;
10517;SDS011;5307;42.548;22.968;2023-05-07T06:31:13;12.05;;;8.60;;
10517;SDS011;5307;42.548;22.968;2023-05-07T06:33:44;12.38;;;8.30;;
10517;SDS011;5307;42.548;22.968;2023-05-07T06:36:12;13.80;;;8.60;;
10517;SDS011;5307;42.548;22.968;2023-05-07T06:42:01;20.73;;;8.57;;
10517;SDS011;5307;42.548;22.968;2023-05-07T06:44:29;15.52;;;9.00;;
10517;SDS011;5307;42.548;22.968;2023-05-07T06:46:57;14.25;;;9.00;;
10517;SDS011;5307;42.548;22.968;2023-05-07T06:59:53;9.77;;;7.80;;
10517;SDS011;5307;42.548;22.968;2023-05-07T07:02:22;11.60;;;8.27;;
10517;SDS011;5307;42.548;22.968;2023-05-07T07:04:49;12.98;;;7.07;;
10517;SDS011;5307;42.548;22.968;2023-05-07T07:07:18;10.25;;;6.90;;
10517;SDS011;5307;42.548;22.968;2023-05-07T07:12:45;8.60;;;6.40;;
10517;SDS011;5307;42.548;22.968;2023-05-07T07:21:42;11.57;;;6.60;;
10517;SDS011;5307;42.548;22.968;2023-05-07T07:27:54;11.93;;;6.28;;
10517;SDS011;5307;42.548;22.968;2023-05-07T07:31:02;8.43;;;7.20;;
10517;SDS011;5307;42.548;22.968;2023-05-07T07:33:30;8.98;;;6.43;;
10517;SDS011;5307;42.548;22.968;2023-05-07T07:35:57;8.48;;;6.85;;
10517;SDS011;5307;42.548;22.968;2023-05-07T07:38:25;11.27;;;6.28;;
10517;SDS011;5307;42.548;22.968;2023-05-07T07:40:51;10.20;;;6.32;;
10517;SDS011;5307;42.548;22.968;2023-05-07T07:43:18;10.43;;;6.38;;
10517;SDS011;5307;42.548;22.968;2023-05-07T07:45:45;12.15;;;5.82;;
10517;SDS011;5307;42.548;22.968;2023-05-07T07:48:12;14.30;;;5.88;;
10517;SDS011;5307;42.548;22.968;2023-05-07T07:50:39;8.00;;;5.30;;
10517;SDS011;5307;42.548;22.968;2023-05-07T07:53:05;12.02;;;5.10;;
10517;SDS011;5307;42.548;22.968;2023-05-07T07:55:34;10.40;;;5.28;;
10517;SDS011;5307;42.548;22.968;2023-05-07T07:58:04;8.40;;;5.30;;
10517;SDS011;5307;42.548;22.968;2023-05-07T08:00:31;9.57;;;4.75;;
10517;SDS011;5307;42.548;22.968;2023-05-07T08:02:58;6.97;;;5.10;;
10517;SDS011;5307;42.548;22.968;2023-05-07T08:05:25;10.38;;;5.07;;
10517;SDS011;5307;42.548;22.968;2023-05-07T08:07:52;7.18;;;5.60;;
10517;SDS011;5307;42.548;22.968;2023-05-07T08:10:19;8.38;;;5.28;;
10517;SDS011;5307;42.548;22.968;2023-05-07T08:12:48;7.60;;;4.78;;
10517;SDS011;5307;42.548;22.968;2023-05-07T08:15:17;8.18;;;5.00;;
10517;SDS011;5307;42.548;22.968;2023-05-07T08:17:44;5.38;;;4.03;;
10517;SDS011;5307;42.548;22.968;2023-05-07T08:20:11;6.18;;;4.80;;
10517;SDS011;5307;42.548;22.968;2023-05-07T08:22:44;5.57;;;4.20;;
10517;SDS011;5307;42.548;22.968;2023-05-07T08:25:11;6.45;;;5.10;;
10517;SDS011;5307;42.548;22.968;2023-05-07T08:27:38;5.97;;;4.32;;
10517;SDS011;5307;42.548;22.968;2023-05-07T08:30:07;9.90;;;4.63;;
10517;SDS011;5307;42.548;22.968;2023-05-07T08:32:34;6.70;;;4.15;;
10517;SDS011;5307;42.548;22.968;2023-05-07T08:35:01;8.85;;;4.95;;
10517;SDS011;5307;42.548;22.968;2023-05-07T08:37:31;8.60;;;4.32;;
10517;SDS011;5307;42.548;22.968;2023-05-07T08:39:58;5.82;;;4.50;;
10517;SDS011;5307;42.548;22.968;2023-05-07T08:42:25;6.15;;;4.32;;
10517;SDS011;5307;42.548;22.968;2023-05-07T08:44:54;8.43;;;4.30;;
10517;SDS011;5307;42.548;22.968;2023-05-07T08:47:29;7.57;;;3.60;;
10517;SDS011;5307;42.548;22.968;2023-05-07T08:50:00;13.68;;;4.18;;
10517;SDS011;5307;42.548;22.968;2023-05-07T08:52:27;6.05;;;4.00;;
10517;SDS011;5307;42.548;22.968;2023-05-07T08:54:54;8.48;;;4.40;;
10517;SDS011;5307;42.548;22.968;2023-05-07T08:57:21;6.00;;;4.32;;
10517;SDS011;5307;42.548;22.968;2023-05-07T08:59:49;5.45;;;4.38;;
10517;SDS011;5307;42.548;22.968;2023-05-07T09:02:16;7.75;;;4.38;;
10517;SDS011;5307;42.548;22.968;2023-05-07T09:04:44;5.32;;;4.28;;
10517;SDS011;5307;42.548;22.968;2023-05-07T09:07:11;10.32;;;4.15;;
10517;SDS011;5307;42.548;22.968;2023-05-07T09:09:38;8.27;;;4.28;;
10517;SDS011;5307;42.548;22.968;2023-05-07T09:12:05;6.97;;;4.10;;
10517;SDS011;5307;42.548;22.968;2023-05-07T09:14:32;6.18;;;3.95;;
10517;SDS011;5307;42.548;22.968;2023-05-07T09:16:59;7.28;;;4.65;;
10517;SDS011;5307;42.548;22.968;2023-05-07T09:19:26;6.97;;;3.80;;
10517;SDS011;5307;42.548;22.968;2023-05-07T09:22:01;6.90;;;3.97;;
10517;SDS011;5307;42.548;22.968;2023-05-07T09:24:29;7.15;;;4.80;;
10517;SDS011;5307;42.548;22.968;2023-05-07T09:27:00;5.53;;;4.10;;
10517;SDS011;5307;42.548;22.968;2023-05-07T09:29:27;5.13;;;3.78;;
10517;SDS011;5307;42.548;22.968;2023-05-07T09:31:55;4.13;;;3.72;;
10517;SDS011;5307;42.548;22.968;2023-05-07T09:34:22;4.60;;;3.88;;
10517;SDS011;5307;42.548;22.968;2023-05-07T09:36:48;10.40;;;4.30;;
10517;SDS011;5307;42.548;22.968;2023-05-07T09:39:17;9.50;;;4.30;;
10517;SDS011;5307;42.548;22.968;2023-05-07T09:41:44;4.45;;;3.72;;
10517;SDS011;5307;42.548;22.968;2023-05-07T09:44:12;4.55;;;3.75;;
10517;SDS011;5307;42.548;22.968;2023-05-07T09:46:42;7.15;;;3.55;;
10517;SDS011;5307;42.548;22.968;2023-05-07T09:49:11;4.78;;;4.38;;
10517;SDS011;5307;42.548;22.968;2023-05-07T09:51:43;4.90;;;3.45;;
10517;SDS011;5307;42.548;22.968;2023-05-07T09:54:14;8.13;;;4.50;;
10517;SDS011;5307;42.548;22.968;2023-05-07T09:56:43;4.78;;;3.70;;
10517;SDS011;5307;42.548;22.968;2023-05-07T09:59:12;4.78;;;3.60;;
10517;SDS011;5307;42.548;22.968;2023-05-07T10:01:41;7.35;;;3.67;;
10517;SDS011;5307;42.548;22.968;2023-05-07T10:04:08;3.70;;;3.40;;
10517;SDS011;5307;42.548;22.968;2023-05-07T10:06:36;5.03;;;3.38;;
10517;SDS011;5307;42.548;22.968;2023-05-07T10:09:04;4.60;;;3.40;;
10517;SDS011;5307;42.548;22.968;2023-05-07T10:11:32;6.55;;;3.78;;
10517;SDS011;5307;42.548;22.968;2023-05-07T10:14:01;7.32;;;3.30;;
10517;SDS011;5307;42.548;22.968;2023-05-07T10:16:32;4.30;;;3.70;;
10517;SDS011;5307;42.548;22.968;2023-05-07T10:19:02;7.95;;;3.50;;
10517;SDS011;5307;42.548;22.968;2023-05-07T10:21:29;7.50;;;4.40;;
10517;SDS011;5307;42.548;22.968;2023-05-07T10:23:58;8.05;;;3.75;;
10517;SDS011;5307;42.548;22.968;2023-05-07T10:26:27;5.13;;;4.05;;
10517;SDS011;5307;42.548;22.968;2023-05-07T10:28:58;5.72;;;3.95;;
10517;SDS011;5307;42.548;22.968;2023-05-07T10:31:39;5.32;;;3.83;;
10517;SDS011;5307;42.548;22.968;2023-05-07T10:34:16;5.85;;;3.78;;
10517;SDS011;5307;42.548;22.968;2023-05-07T10:36:48;5.10;;;3.60;;
10517;SDS011;5307;42.548;22.968;2023-05-07T10:39:17;5.43;;;3.95;;
10517;SDS011;5307;42.548;22.968;2023-05-07T10:41:44;5.00;;;2.90;;
10517;SDS011;5307;42.548;22.968;2023-05-07T10:44:10;4.00;;;3.60;;
10517;SDS011;5307;42.548;22.968;2023-05-07T10:46:39;4.43;;;3.85;;
10517;SDS011;5307;42.548;22.968;2023-05-07T10:49:06;4.55;;;3.80;;
10517;SDS011;5307;42.548;22.968;2023-05-07T10:51:33;4.38;;;3.72;;
10517;SDS011;5307;42.548;22.968;2023-05-07T10:54:19;5.00;;;3.75;;
10517;SDS011;5307;42.548;22.968;2023-05-07T10:56:47;6.75;;;3.55;;
10517;SDS011;5307;42.548;22.968;2023-05-07T11:02:08;4.82;;;3.97;;
10517;SDS011;5307;42.548;22.968;2023-05-07T11:04:36;4.22;;;3.30;;
10517;SDS011;5307;42.548;22.968;2023-05-07T11:09:59;5.75;;;3.70;;
10517;SDS011;5307;42.548;22.968;2023-05-07T11:12:47;6.13;;;3.25;;
10517;SDS011;5307;42.548;22.968;2023-05-07T11:18:04;6.75;;;3.50;;
10517;SDS011;5307;42.548;22.968;2023-05-07T11:26:21;3.72;;;3.35;;
10517;SDS011;5307;42.548;22.968;2023-05-07T11:28:48;4.00;;;3.22;;
10517;SDS011;5307;42.548;22.968;2023-05-07T11:31:17;4.68;;;3.78;;
10517;SDS011;5307;42.548;22.968;2023-05-07T11:33:49;6.75;;;3.60;;
10517;SDS011;5307;42.548;22.968;2023-05-07T11:36:16;4.25;;;3.78;;
10517;SDS011;5307;42.548;22.968;2023-05-07T11:38:45;6.18;;;3.38;;
10517;SDS011;5307;42.548;22.968;2023-05-07T11:41:11;4.25;;;3.65;;
10517;SDS011;5307;42.548;22.968;2023-05-07T11:43:40;4.30;;;3.65;;
10517;SDS011;5307;42.548;22.968;2023-05-07T11:46:21;7.32;;;3.88;;
10517;SDS011;5307;42.548;22.968;2023-05-07T11:48:49;3.75;;;3.40;;
10517;SDS011;5307;42.548;22.968;2023-05-07T11:51:18;4.93;;;3.40;;
10517;SDS011;5307;42.548;22.968;2023-05-07T11:53:46;5.57;;;3.75;;
10517;SDS011;5307;42.548;22.968;2023-05-07T11:56:13;6.80;;;3.63;;
10517;SDS011;5307;42.548;22.968;2023-05-07T11:58:42;5.95;;;3.53;;
10517;SDS011;5307;42.548;22.968;2023-05-07T12:01:11;4.28;;;3.33;;
10517;SDS011;5307;42.548;22.968;2023-05-07T12:03:40;9.13;;;3.90;;
10517;SDS011;5307;42.548;22.968;2023-05-07T12:06:10;7.85;;;3.40;;
10517;SDS011;5307;42.548;22.968;2023-05-07T12:08:38;3.53;;;3.03;;
10517;SDS011;5307;42.548;22.968;2023-05-07T12:11:08;3.65;;;3.30;;
10517;SDS011;5307;42.548;22.968;2023-05-07T12:13:38;6.15;;;3.38;;
10517;SDS011;5307;42.548;22.968;2023-05-07T12:16:05;4.90;;;3.38;;
10517;SDS011;5307;42.548;22.968;2023-05-07T12:18:34;7.70;;;3.78;;
10517;SDS011;5307;42.548;22.968;2023-05-07T12:21:02;7.07;;;3.83;;
10517;SDS011;5307;42.548;22.968;2023-05-07T12:23:32;5.70;;;3.97;;
10517;SDS011;5307;42.548;22.968;2023-05-07T12:26:00;4.18;;;3.58;;
10517;SDS011;5307;42.548;22.968;2023-05-07T12:28:27;4.25;;;3.80;;
10517;SDS011;5307;42.548;22.968;2023-05-07T12:30:54;5.28;;;3.05;;
10517;SDS011;5307;42.548;22.968;2023-05-07T12:33:23;4.38;;;3.60;;
10517;SDS011;5307;42.548;22.968;2023-05-07T12:35:54;5.57;;;3.42;;
10517;SDS011;5307;42.548;22.968;2023-05-07T12:38:22;4.22;;;3.45;;
10517;SDS011;5307;42.548;22.968;2023-05-07T12:40:53;3.70;;;3.40;;
10517;SDS011;5307;42.548;22.968;2023-05-07T12:43:21;4.70;;;3.75;;
10517;SDS011;5307;42.548;22.968;2023-05-07T12:45:51;4.70;;;3.75;;
10517;SDS011;5307;42.548;22.968;2023-05-07T12:48:21;5.20;;;3.55;;
10517;SDS011;5307;42.548;22.968;2023-05-07T12:50:49;4.75;;;3.67;;
10517;SDS011;5307;42.548;22.968;2023-05-07T12:53:16;4.05;;;3.13;;
10517;SDS011;5307;42.548;22.968;2023-05-07T12:55:43;6.00;;;3.53;;
10517;SDS011;5307;42.548;22.968;2023-05-07T12:58:18;5.35;;;3.65;;
10517;SDS011;5307;42.548;22.968;2023-05-07T13:00:47;3.55;;;3.25;;
10517;SDS011;5307;42.548;22.968;2023-05-07T13:03:22;4.30;;;3.03;;
10517;SDS011;5307;42.548;22.968;2023-05-07T13:05:50;4.35;;;3.30;;
10517;SDS011;5307;42.548;22.968;2023-05-07T13:08:24;7.82;;;3.20;;
10517;SDS011;5307;42.548;22.968;2023-05-07T13:10:55;3.55;;;3.25;;
10517;SDS011;5307;42.548;22.968;2023-05-07T13:13:24;3.42;;;3.13;;
10517;SDS011;5307;42.548;22.968;2023-05-07T13:15:51;8.63;;;3.30;;
10517;SDS011;5307;42.548;22.968;2023-05-07T13:18:18;4.25;;;3.85;;
10517;SDS011;5307;42.548;22.968;2023-05-07T13:20:44;3.63;;;3.33;;
10517;SDS011;5307;42.548;22.968;2023-05-07T13:23:12;3.88;;;3.58;;
10517;SDS011;5307;42.548;22.968;2023-05-07T13:25:42;4.30;;;3.58;;
10517;SDS011;5307;42.548;22.968;2023-05-07T13:28:09;4.13;;;3.70;;
10517;SDS011;5307;42.548;22.968;2023-05-07T13:30:37;3.47;;;3.17;;
10517;SDS011;5307;42.548;22.968;2023-05-07T13:33:05;4.68;;;4.15;;
10517;SDS011;5307;42.548;22.968;2023-05-07T13:35:33;4.53;;;3.42;;
10517;SDS011;5307;42.548;22.968;2023-05-07T13:38:01;5.63;;;3.75;;
10517;SDS011;5307;42.548;22.968;2023-05-07T13:40:28;3.88;;;3.47;;
10517;SDS011;5307;42.548;22.968;2023-05-07T13:42:56;4.47;;;3.72;;
10517;SDS011;5307;42.548;22.968;2023-05-07T13:45:23;4.15;;;3.75;;
10517;SDS011;5307;42.548;22.968;2023-05-07T13:47:53;4.22;;;3.83;;
10517;SDS011;5307;42.548;22.968;2023-05-07T13:50:20;6.85;;;3.97;;
10517;SDS011;5307;42.548;22.968;2023-05-07T13:52:47;5.30;;;3.92;;
10517;SDS011;5307;42.548;22.968;2023-05-07T13:55:15;7.63;;;3.70;;
10517;SDS011;5307;42.548;22.968;2023-05-07T13:57:43;5.50;;;3.78;;
10517;SDS011;5307;42.548;22.968;2023-05-07T14:00:11;3.78;;;3.47;;
10517;SDS011;5307;42.548;22.968;2023-05-07T14:02:38;6.00;;;3.55;;
10517;SDS011;5307;42.548;22.968;2023-05-07T14:05:06;6.03;;;3.80;;
10517;SDS011;5307;42.548;22.968;2023-05-07T14:07:34;6.85;;;3.75;;
10517;SDS011;5307;42.548;22.968;2023-05-07T14:10:01;5.38;;;3.75;;
10517;SDS011;5307;42.548;22.968;2023-05-07T14:12:28;5.05;;;3.40;;
10517;SDS011;5307;42.548;22.968;2023-05-07T14:15:01;4.53;;;3.65;;
10517;SDS011;5307;42.548;22.968;2023-05-07T14:17:27;5.32;;;3.65;;
10517;SDS011;5307;42.548;22.968;2023-05-07T14:19:54;4.82;;;3.60;;
10517;SDS011;5307;42.548;22.968;2023-05-07T14:25:09;8.43;;;3.65;;
10517;SDS011;5307;42.548;22.968;2023-05-07T14:27:35;4.50;;;4.10;;
10517;SDS011;5307;42.548;22.968;2023-05-07T14:30:02;4.88;;;4.20;;
10517;SDS011;5307;42.548;22.968;2023-05-07T14:32:29;4.35;;;3.95;;
10517;SDS011;5307;42.548;22.968;2023-05-07T14:34:56;4.35;;;3.70;;
10517;SDS011;5307;42.548;22.968;2023-05-07T14:37:23;6.78;;;3.45;;
10517;SDS011;5307;42.548;22.968;2023-05-07T14:39:51;4.10;;;3.65;;
10517;SDS011;5307;42.548;22.968;2023-05-07T14:42:18;5.20;;;4.00;;
10517;SDS011;5307;42.548;22.968;2023-05-07T14:44:46;4.60;;;4.15;;
10517;SDS011;5307;42.548;22.968;2023-05-07T14:47:13;4.38;;;3.97;;
10517;SDS011;5307;42.548;22.968;2023-05-07T14:49:40;4.30;;;3.90;;
10517;SDS011;5307;42.548;22.968;2023-05-07T14:52:07;4.95;;;3.60;;
10517;SDS011;5307;42.548;22.968;2023-05-07T14:58:17;6.97;;;3.97;;
10517;SDS011;5307;42.548;22.968;2023-05-07T15:00:44;6.47;;;3.30;;
10517;SDS011;5307;42.548;22.968;2023-05-07T15:03:11;4.15;;;3.70;;
10517;SDS011;5307;42.548;22.968;2023-05-07T15:05:38;5.97;;;3.30;;
10517;SDS011;5307;42.548;22.968;2023-05-07T15:08:06;4.45;;;3.53;;
10517;SDS011;5307;42.548;22.968;2023-05-07T15:10:34;8.85;;;3.90;;
10517;SDS011;5307;42.548;22.968;2023-05-07T15:13:06;6.85;;;3.95;;
10517;SDS011;5307;42.548;22.968;2023-05-07T15:15:34;4.05;;;3.65;;
10517;SDS011;5307;42.548;22.968;2023-05-07T15:18:01;5.85;;;3.17;;
10517;SDS011;5307;42.548;22.968;2023-05-07T15:20:28;5.53;;;3.80;;
10517;SDS011;5307;42.548;22.968;2023-05-07T15:22:55;7.63;;;3.40;;
10517;SDS011;5307;42.548;22.968;2023-05-07T15:25:23;4.78;;;4.22;;
10517;SDS011;5307;42.548;22.968;2023-05-07T15:27:50;5.88;;;4.05;;
10517;SDS011;5307;42.548;22.968;2023-05-07T15:30:17;3.90;;;3.33;;
10517;SDS011;5307;42.548;22.968;2023-05-07T15:32:47;7.07;;;3.78;;
10517;SDS011;5307;42.548;22.968;2023-05-07T15:35:14;6.00;;;3.55;;
10517;SDS011;5307;42.548;22.968;2023-05-07T15:37:42;5.88;;;3.70;;
10517;SDS011;5307;42.548;22.968;2023-05-07T15:40:09;5.45;;;3.72;;
10517;SDS011;5307;42.548;22.968;2023-05-07T15:42:36;5.20;;;3.42;;
10517;SDS011;5307;42.548;22.968;2023-05-07T15:45:03;4.78;;;3.60;;
10517;SDS011;5307;42.548;22.968;2023-05-07T15:47:32;7.10;;;3.67;;
10517;SDS011;5307;42.548;22.968;2023-05-07T15:50:01;7.03;;;5.72;;
10517;SDS011;5307;42.548;22.968;2023-05-07T15:52:30;5.65;;;4.90;;
10517;SDS011;5307;42.548;22.968;2023-05-07T15:54:57;4.22;;;3.80;;
10517;SDS011;5307;42.548;22.968;2023-05-07T15:57:24;6.38;;;4.13;;
10517;SDS011;5307;42.548;22.968;2023-05-07T15:59:51;4.18;;;3.65;;
10517;SDS011;5307;42.548;22.968;2023-05-07T16:02:18;3.83;;;3.42;;
10517;SDS011;5307;42.548;22.968;2023-05-07T16:04:45;4.47;;;3.78;;
10517;SDS011;5307;42.548;22.968;2023-05-07T16:07:14;4.47;;;4.05;;
10517;SDS011;5307;42.548;22.968;2023-05-07T16:09:41;4.45;;;3.33;;
10517;SDS011;5307;42.548;22.968;2023-05-07T16:12:08;6.57;;;4.05;;
10517;SDS011;5307;42.548;22.968;2023-05-07T16:14:36;4.50;;;3.85;;
10517;SDS011;5307;42.548;22.968;2023-05-07T16:17:02;8.88;;;4.00;;
10517;SDS011;5307;42.548;22.968;2023-05-07T16:19:29;9.20;;;4.78;;
10517;SDS011;5307;42.548;22.968;2023-05-07T16:21:56;5.78;;;4.15;;
10517;SDS011;5307;42.548;22.968;2023-05-07T16:24:24;8.38;;;5.03;;
10517;SDS011;5307;42.548;22.968;2023-05-07T16:26:52;5.80;;;4.13;;
10517;SDS011;5307;42.548;22.968;2023-05-07T16:29:19;4.60;;;4.15;;
10517;SDS011;5307;42.548;22.968;2023-05-07T16:31:47;6.97;;;4.57;;
10517;SDS011;5307;42.548;22.968;2023-05-07T16:34:14;7.07;;;4.10;;
10517;SDS011;5307;42.548;22.968;2023-05-07T16:36:40;5.00;;;4.10;;
10517;SDS011;5307;42.548;22.968;2023-05-07T16:39:07;6.15;;;4.00;;
10517;SDS011;5307;42.548;22.968;2023-05-07T16:41:36;8.07;;;4.90;;
10517;SDS011;5307;42.548;22.968;2023-05-07T16:44:03;6.35;;;3.90;;
10517;SDS011;5307;42.548;22.968;2023-05-07T16:46:30;10.95;;;4.40;;
10517;SDS011;5307;42.548;22.968;2023-05-07T16:48:57;7.55;;;5.07;;
10517;SDS011;5307;42.548;22.968;2023-05-07T16:51:23;14.05;;;5.30;;
10517;SDS011;5307;42.548;22.968;2023-05-07T16:53:51;13.27;;;5.35;;
10517;SDS011;5307;42.548;22.968;2023-05-07T16:56:18;8.80;;;4.97;;
10517;SDS011;5307;42.548;22.968;2023-05-07T16:58:47;9.77;;;5.43;;
10517;SDS011;5307;42.548;22.968;2023-05-07T17:01:14;9.73;;;5.95;;
10517;SDS011;5307;42.548;22.968;2023-05-07T17:03:42;15.98;;;5.57;;
10517;SDS011;5307;42.548;22.968;2023-05-07T17:06:09;9.48;;;5.80;;
10517;SDS011;5307;42.548;22.968;2023-05-07T17:08:40;9.30;;;5.18;;
10517;SDS011;5307;42.548;22.968;2023-05-07T17:11:07;6.00;;;4.60;;
10517;SDS011;5307;42.548;22.968;2023-05-07T17:13:34;13.68;;;5.85;;
10517;SDS011;5307;42.548;22.968;2023-05-07T17:16:02;14.25;;;5.43;;
10517;SDS011;5307;42.548;22.968;2023-05-07T17:18:30;17.13;;;5.10;;
10517;SDS011;5307;42.548;22.968;2023-05-07T17:20:57;9.18;;;5.35;;
10517;SDS011;5307;42.548;22.968;2023-05-07T17:23:24;8.70;;;5.93;;
10517;SDS011;5307;42.548;22.968;2023-05-07T17:25:51;8.23;;;6.40;;
10517;SDS011;5307;42.548;22.968;2023-05-07T17:28:18;10.70;;;9.30;;
10517;SDS011;5307;42.548;22.968;2023-05-07T17:30:46;13.15;;;11.75;;
10517;SDS011;5307;42.548;22.968;2023-05-07T17:33:14;11.10;;;9.50;;
10517;SDS011;5307;42.548;22.968;2023-05-07T17:35:41;11.77;;;8.15;;
10517;SDS011;5307;42.548;22.968;2023-05-07T17:38:08;10.60;;;6.75;;
10517;SDS011;5307;42.548;22.968;2023-05-07T17:40:35;7.65;;;5.97;;
10517;SDS011;5307;42.548;22.968;2023-05-07T17:43:01;8.45;;;6.35;;
10517;SDS011;5307;42.548;22.968;2023-05-07T17:45:28;11.25;;;5.90;;
10517;SDS011;5307;42.548;22.968;2023-05-07T17:47:57;10.80;;;6.25;;
10517;SDS011;5307;42.548;22.968;2023-05-07T17:50:25;22.88;;;6.82;;
10517;SDS011;5307;42.548;22.968;2023-05-07T17:52:52;17.48;;;9.65;;
10517;SDS011;5307;42.548;22.968;2023-05-07T17:55:19;12.57;;;8.02;;
10517;SDS011;5307;42.548;22.968;2023-05-07T17:57:46;12.82;;;7.20;;
10517;SDS011;5307;42.548;22.968;2023-05-07T18:00:13;9.68;;;6.22;;
10517;SDS011;5307;42.548;22.968;2023-05-07T18:02:40;6.50;;;5.65;;
10517;SDS011;5307;42.548;22.968;2023-05-07T18:05:07;7.60;;;6.28;;
10517;SDS011;5307;42.548;22.968;2023-05-07T18:07:36;6.32;;;5.72;;
10517;SDS011;5307;42.548;22.968;2023-05-07T18:10:02;9.63;;;5.55;;
10517;SDS011;5307;42.548;22.968;2023-05-07T18:12:29;10.18;;;7.47;;
10517;SDS011;5307;42.548;22.968;2023-05-07T18:14:56;7.88;;;6.07;;
10517;SDS011;5307;42.548;22.968;2023-05-07T18:17:23;6.53;;;5.70;;
10517;SDS011;5307;42.548;22.968;2023-05-07T18:19:51;6.95;;;5.88;;
10517;SDS011;5307;42.548;22.968;2023-05-07T18:22:17;10.77;;;6.22;;
10517;SDS011;5307;42.548;22.968;2023-05-07T18:24:46;9.80;;;6.47;;
10517;SDS011;5307;42.548;22.968;2023-05-07T18:27:13;12.55;;;6.78;;
10517;SDS011;5307;42.548;22.968;2023-05-07T18:29:40;23.55;;;8.30;;
10517;SDS011;5307;42.548;22.968;2023-05-07T18:32:06;18.02;;;8.10;;
10517;SDS011;5307;42.548;22.968;2023-05-07T18:34:33;11.05;;;7.25;;
10517;SDS011;5307;42.548;22.968;2023-05-07T18:37:00;11.20;;;8.10;;
10517;SDS011;5307;42.548;22.968;2023-05-07T18:39:27;13.52;;;8.23;;
10517;SDS011;5307;42.548;22.968;2023-05-07T18:41:55;15.55;;;8.02;;
10517;SDS011;5307;42.548;22.968;2023-05-07T18:44:22;19.45;;;8.98;;
10517;SDS011;5307;42.548;22.968;2023-05-07T18:46:51;11.48;;;6.75;;
10517;SDS011;5307;42.548;22.968;2023-05-07T18:49:18;9.20;;;6.57;;
10517;SDS011;5307;42.548;22.968;2023-05-07T18:51:45;9.95;;;6.22;;
10517;SDS011;5307;42.548;22.968;2023-05-07T18:54:12;13.80;;;6.10;;
10517;SDS011;5307;42.548;22.968;2023-05-07T18:56:39;7.30;;;6.43;;
10517;SDS011;5307;42.548;22.968;2023-05-07T18:59:08;16.45;;;7.93;;
10517;SDS011;5307;42.548;22.968;2023-05-07T19:01:35;10.85;;;6.72;;
10517;SDS011;5307;42.548;22.968;2023-05-07T19:04:02;10.50;;;6.75;;
10517;SDS011;5307;42.548;22.968;2023-05-07T19:06:29;14.32;;;7.60;;
10517;SDS011;5307;42.548;22.968;2023-05-07T19:08:56;21.98;;;11.50;;
10517;SDS011;5307;42.548;22.968;2023-05-07T19:11:23;23.98;;;11.23;;
10517;SDS011;5307;42.548;22.968;2023-05-07T19:13:49;19.45;;;13.02;;